Terminal Aerodrome Forecast
Issued by NWS

Home | Current Version | Previous Version | Text Only | Print | Product List | Glossary On
Versions: 1 2 3 4 5 6 7 8 9 10 11 12 13 14 15 16 17 18 19 20 21 22 23 24 25 26 27 28 29
000
FTUS41 KBOX 201122
TAFFMH
TAF
KFMH 201122Z 2012/2112 VRB03KT P6SM FEW250
     FM201500 06007KT P6SM SKC
     FM202000 10007KT P6SM SKC
     FM210000 VRB03KT P6SM FEW250=

USA.gov is the U.S. government's official web portal to all federal, state and local government web resources and services.